Time;durP1;ratioP1;P1;durP2;ratioP2;P2;SDS_P1;SDS_P2;PMS_P1;PMS_P2;Temp;Humidity;BMP_temperature;BMP_pressure;BME280_temperature;BME280_humidity;BME280_pressure;Samples;Min_cycle;Max_cycle;Signal;HPM_P1;HPM_P2
2021/12/26 00:01:15;;;;;;;5.88;3.15;;;-5.70;99.90;;;;;;5078992;28;20514;-59
2021/12/26 00:03:41;;;;;;;7.07;3.88;;;-5.70;99.90;;;;;;5080840;28;20047;-61
2021/12/26 00:06:19;;;;;;;5.65;3.00;;;-5.70;99.90;;;;;;5082809;28;20571;-60
2021/12/26 00:08:46;;;;;;;5.68;2.80;;;-5.80;99.90;;;;;;5075856;28;20052;-59
2021/12/26 00:11:12;;;;;;;6.40;3.20;;;-5.80;99.90;;;;;;5079897;28;20127;-56
2021/12/26 00:13:39;;;;;;;6.47;3.22;;;-5.70;99.90;;;;;;5073873;28;20136;-59
2021/12/26 00:16:05;;;;;;;6.03;2.67;;;-5.80;99.90;;;;;;5081854;28;20050;-60
2021/12/26 00:18:31;;;;;;;6.20;3.17;;;-5.80;99.90;;;;;;5066701;28;20048;-59
2021/12/26 00:20:59;;;;;;;6.00;3.45;;;-5.80;99.90;;;;;;5069412;28;20169;-59
2021/12/26 00:23:24;;;;;;;5.25;2.95;;;-5.90;99.90;;;;;;5060315;28;20028;-54
2021/12/26 00:25:50;;;;;;;7.15;3.13;;;-5.80;99.90;;;;;;5069202;28;20045;-61
2021/12/26 00:28:16;;;;;;;5.90;3.10;;;-5.80;99.90;;;;;;5066497;28;20085;-61
2021/12/26 00:30:44;;;;;;;5.50;3.10;;;-5.80;99.90;;;;;;5067432;28;20508;-58
2021/12/26 00:33:10;;;;;;;6.55;3.83;;;-5.80;99.90;;;;;;5061914;28;20037;-54
2021/12/26 00:35:36;;;;;;;6.35;2.85;;;-5.90;99.90;;;;;;5069941;28;20036;-58
2021/12/26 00:38:02;;;;;;;7.38;3.22;;;-5.90;99.90;;;;;;5067051;28;20046;-55
2021/12/26 00:40:28;;;;;;;6.53;3.30;;;-5.90;99.90;;;;;;5067451;28;20242;-59
2021/12/26 00:42:54;;;;;;;5.95;3.30;;;-5.90;99.90;;;;;;5068631;28;20524;-59
2021/12/26 00:45:20;;;;;;;5.90;3.20;;;-5.90;99.90;;;;;;5064697;28;20040;-60
2021/12/26 00:47:46;;;;;;;8.60;3.63;;;-5.90;99.90;;;;;;5060623;28;20037;-60
2021/12/26 00:50:15;;;;;;;6.18;3.53;;;-5.90;99.90;;;;;;5069496;28;20044;-59
2021/12/26 00:52:41;;;;;;;6.82;3.78;;;-6.00;99.90;;;;;;5069369;28;20040;-57
2021/12/26 00:55:09;;;;;;;6.68;3.35;;;-6.10;99.90;;;;;;5064289;28;20037;-59
2021/12/26 00:57:34;;;;;;;6.22;3.15;;;-6.10;99.90;;;;;;5066499;28;20040;-58
2021/12/26 01:00:00;;;;;;;6.93;3.88;;;-6.10;99.90;;;;;;5068093;28;20036;-57
2021/12/26 01:02:26;;;;;;;5.90;3.53;;;-6.10;99.90;;;;;;5068709;28;20128;-55
2021/12/26 01:04:52;;;;;;;6.25;3.22;;;-6.10;99.90;;;;;;5062351;28;20044;-58
2021/12/26 01:07:33;;;;;;;7.35;3.42;;;-6.10;99.90;;;;;;5066342;28;20043;-57
2021/12/26 01:09:59;;;;;;;7.55;3.28;;;-6.00;99.90;;;;;;5062807;28;20119;-60
2021/12/26 01:12:25;;;;;;;7.18;3.53;;;-6.00;99.90;;;;;;5068704;28;20194;-59
2021/12/26 01:14:57;;;;;;;6.05;3.17;;;-6.00;99.90;;;;;;5068056;28;20076;-57
2021/12/26 01:17:25;;;;;;;9.32;3.28;;;-6.00;99.90;;;;;;5068022;28;20043;-55
2021/12/26 01:19:53;;;;;;;4.97;2.75;;;-6.00;99.90;;;;;;5061929;28;20051;-59
2021/12/26 01:22:19;;;;;;;5.63;3.58;;;-6.00;99.90;;;;;;5067151;28;20040;-51
2021/12/26 01:24:48;;;;;;;4.57;3.55;;;-6.00;99.90;;;;;;5062001;28;20041;-59
2021/12/26 01:27:14;;;;;;;5.63;2.83;;;-6.00;99.90;;;;;;5068324;28;20048;-55
2021/12/26 01:29:40;;;;;;;6.53;3.22;;;-6.00;99.90;;;;;;5060852;28;20040;-56
2021/12/26 01:32:06;;;;;;;6.25;3.67;;;-6.00;99.90;;;;;;5066946;28;20409;-59
2021/12/26 01:34:32;;;;;;;5.50;3.05;;;-6.00;99.90;;;;;;5057098;28;20465;-59
2021/12/26 01:36:58;;;;;;;7.72;3.83;;;-6.00;99.90;;;;;;5063906;28;20131;-57
2021/12/26 01:39:25;;;;;;;6.75;3.78;;;-6.00;99.90;;;;;;5059342;28;20044;-59
2021/12/26 01:41:51;;;;;;;5.82;3.35;;;-5.90;99.90;;;;;;5066351;28;20044;-56
2021/12/26 01:44:17;;;;;;;6.65;3.50;;;-6.00;99.90;;;;;;5065383;28;20067;-60
2021/12/26 01:46:46;;;;;;;5.82;3.30;;;-6.00;99.90;;;;;;5067064;28;20455;-59
2021/12/26 01:49:18;;;;;;;5.35;3.15;;;-6.00;99.90;;;;;;5067602;28;20040;-56
2021/12/26 01:51:46;;;;;;;11.65;3.20;;;-6.00;99.90;;;;;;5067692;28;20158;-59
2021/12/26 01:54:38;;;;;;;9.93;3.97;;;-6.00;99.90;;;;;;5053008;28;20098;-58
2021/12/26 01:57:07;;;;;;;6.45;3.42;;;-6.00;99.90;;;;;;5065462;28;20540;-60
2021/12/26 01:59:33;;;;;;;4.63;3.20;;;-6.00;99.90;;;;;;5066271;28;20388;-56
2021/12/26 02:01:59;;;;;;;6.22;3.45;;;-5.90;99.90;;;;;;5066660;28;20481;-53
2021/12/26 02:04:28;;;;;;;5.20;2.90;;;-6.00;99.90;;;;;;5058435;28;20446;-54
2021/12/26 02:06:56;;;;;;;7.78;3.28;;;-6.00;99.90;;;;;;5064024;28;20080;-59
2021/12/26 02:09:22;;;;;;;6.75;3.88;;;-6.10;99.90;;;;;;5058836;28;20040;-57
2021/12/26 02:11:47;;;;;;;7.07;3.20;;;-6.10;99.90;;;;;;5061995;28;20555;-58
2021/12/26 02:14:13;;;;;;;6.50;3.42;;;-6.10;99.90;;;;;;5057482;28;20040;-56
2021/12/26 02:16:39;;;;;;;9.90;3.45;;;-6.10;99.90;;;;;;5063769;28;20051;-56
2021/12/26 02:19:04;;;;;;;8.93;2.97;;;-6.10;99.90;;;;;;5059919;28;20541;-57
2021/12/26 02:29:20;;;;;;;6.93;3.25;;;-6.20;99.90;;;;;;5065660;28;20120;-53
2021/12/26 02:31:45;;;;;;;5.43;3.30;;;-6.20;99.90;;;;;;5066090;28;20117;-58
2021/12/26 02:34:11;;;;;;;5.50;3.10;;;-6.30;99.90;;;;;;5058697;28;20054;-59
2021/12/26 02:36:37;;;;;;;5.93;2.97;;;-6.30;99.90;;;;;;5066091;28;20097;-56
2021/12/26 02:39:04;;;;;;;5.47;3.22;;;-6.40;99.90;;;;;;5067560;28;20048;-57
2021/12/26 02:41:30;;;;;;;7.05;3.72;;;-6.40;99.90;;;;;;5067062;28;20052;-59
2021/12/26 02:43:56;;;;;;;8.85;3.78;;;-6.40;99.90;;;;;;5065614;28;20070;-56
2021/12/26 02:46:21;;;;;;;6.40;3.33;;;-6.30;99.90;;;;;;5064567;28;20094;-60
2021/12/26 02:48:47;;;;;;;6.68;3.05;;;-6.30;99.90;;;;;;5060806;28;20493;-58
2021/12/26 02:51:12;;;;;;;5.72;3.20;;;-6.20;99.90;;;;;;5067143;28;20651;-60
2021/12/26 02:53:39;;;;;;;6.03;3.30;;;-6.20;99.90;;;;;;5059657;28;20040;-60
2021/12/26 02:56:05;;;;;;;7.53;3.55;;;-6.20;99.90;;;;;;5066293;28;20037;-61
2021/12/26 02:58:32;;;;;;;8.05;3.67;;;-6.20;99.90;;;;;;5061372;28;20131;-59
2021/12/26 03:01:06;;;;;;;7.25;3.33;;;-6.10;99.90;;;;;;5064699;28;20051;-58
2021/12/26 03:03:32;;;;;;;6.75;3.63;;;-6.10;99.90;;;;;;5057709;28;20072;-59
2021/12/26 03:06:05;;;;;;;8.65;3.50;;;-6.10;99.90;;;;;;5065568;28;20076;-56
2021/12/26 03:08:30;;;;;;;6.97;3.40;;;-6.00;99.90;;;;;;5061203;28;20040;-59
2021/12/26 03:10:56;;;;;;;5.55;3.33;;;-6.10;99.90;;;;;;5066779;28;20538;-57
2021/12/26 03:13:23;;;;;;;7.30;3.60;;;-6.00;99.90;;;;;;5060311;28;20508;-57
2021/12/26 03:15:49;;;;;;;7.22;3.42;;;-5.90;99.90;;;;;;5061738;28;20040;-55
2021/12/26 03:18:15;;;;;;;5.85;3.20;;;-5.90;99.90;;;;;;5061835;28;20072;-58
2021/12/26 03:20:44;;;;;;;5.47;3.22;;;-5.90;99.90;;;;;;5063788;28;20648;-59
2021/12/26 03:23:16;;;;;;;7.78;3.50;;;-5.80;99.90;;;;;;5065088;28;20093;-59
2021/12/26 03:25:43;;;;;;;6.95;3.70;;;-5.70;99.90;;;;;;5064609;28;20072;-54
2021/12/26 03:28:09;;;;;;;6.03;3.42;;;-5.70;99.90;;;;;;5062218;28;20148;-57
2021/12/26 03:30:36;;;;;;;6.13;3.53;;;-5.60;99.90;;;;;;5062582;28;20033;-60
2021/12/26 03:33:04;;;;;;;6.03;3.75;;;-5.50;99.90;;;;;;5062295;28;20139;-53
2021/12/26 03:35:30;;;;;;;6.65;3.58;;;-5.40;99.90;;;;;;5063322;28;20036;-56
2021/12/26 03:37:58;;;;;;;8.27;4.22;;;-5.50;99.90;;;;;;5066596;28;20064;-57
2021/12/26 03:40:24;;;;;;;8.15;4.47;;;-5.40;99.90;;;;;;5065509;28;20071;-54
2021/12/26 03:42:52;;;;;;;7.45;3.75;;;-5.30;99.90;;;;;;5065778;28;20036;-60
2021/12/26 03:45:18;;;;;;;8.77;4.15;;;-5.20;99.90;;;;;;5060776;28;20073;-59
2021/12/26 03:47:48;;;;;;;8.90;4.30;;;-5.10;99.90;;;;;;5063887;28;20060;-57
2021/12/26 03:50:16;;;;;;;6.57;3.60;;;-5.00;99.90;;;;;;5056634;28;20048;-51
2021/12/26 03:52:42;;;;;;;7.47;3.63;;;-4.90;99.90;;;;;;5068285;28;20093;-60
2021/12/26 03:55:08;;;;;;;5.68;3.28;;;-4.90;99.90;;;;;;5060044;28;20029;-56
2021/12/26 03:57:33;;;;;;;5.60;3.47;;;-4.80;99.90;;;;;;5062406;28;20083;-61
2021/12/26 03:59:59;;;;;;;7.75;3.90;;;-4.70;99.90;;;;;;5062122;28;20154;-60
2021/12/26 04:02:25;;;;;;;7.50;3.67;;;-4.80;99.90;;;;;;5069157;28;20548;-53
2021/12/26 04:04:50;;;;;;;7.40;3.97;;;-4.80;99.90;;;;;;5068676;28;20032;-56
2021/12/26 04:07:16;;;;;;;7.72;4.20;;;-4.80;99.90;;;;;;5068951;28;20044;-57
2021/12/26 04:09:42;;;;;;;7.95;4.40;;;-4.70;99.90;;;;;;5069194;28;20400;-55
2021/12/26 04:12:08;;;;;;;8.35;4.35;;;-4.60;99.90;;;;;;5067831;28;20468;-53
2021/12/26 04:14:33;;;;;;;7.60;4.10;;;-4.50;99.90;;;;;;5065333;28;20033;-59
2021/12/26 04:16:59;;;;;;;8.18;4.25;;;-4.40;99.90;;;;;;5065497;28;20457;-59
2021/12/26 04:19:25;;;;;;;7.10;4.03;;;-4.30;99.90;;;;;;5064878;28;20082;-53
2021/12/26 04:21:50;;;;;;;6.70;3.90;;;-4.20;99.90;;;;;;5066296;28;20036;-52
2021/12/26 04:24:16;;;;;;;7.25;4.22;;;-4.20;99.90;;;;;;5065171;28;20044;-55
2021/12/26 04:26:42;;;;;;;8.18;4.35;;;-4.10;99.90;;;;;;5065058;28;20048;-54
2021/12/26 04:29:09;;;;;;;9.50;4.90;;;-4.10;99.90;;;;;;5062346;28;20396;-61
2021/12/26 04:31:35;;;;;;;7.15;4.10;;;-4.00;99.90;;;;;;5066536;28;20553;-58
2021/12/26 04:34:00;;;;;;;8.23;4.78;;;-4.00;99.90;;;;;;5066019;28;20089;-53
2021/12/26 04:36:26;;;;;;;9.55;4.90;;;-3.90;99.90;;;;;;5064638;28;20040;-61
2021/12/26 04:38:52;;;;;;;7.07;4.18;;;-3.80;99.90;;;;;;5065242;28;20051;-53
2021/12/26 04:41:18;;;;;;;10.23;4.47;;;-3.80;99.90;;;;;;5069122;28;20039;-58
2021/12/26 04:43:43;;;;;;;13.27;5.40;;;-3.80;99.90;;;;;;5066258;28;20441;-56
2021/12/26 04:46:10;;;;;;;11.07;4.80;;;-4.00;99.90;;;;;;5062992;28;20045;-54
2021/12/26 04:48:37;;;;;;;12.20;5.60;;;-3.90;99.90;;;;;;5063635;28;20037;-55
2021/12/26 04:51:05;;;;;;;10.18;4.90;;;-3.90;99.90;;;;;;5069266;28;20037;-59
2021/12/26 04:53:31;;;;;;;9.57;4.72;;;-3.80;99.90;;;;;;5062662;28;20037;-57
2021/12/26 04:55:57;;;;;;;9.50;4.85;;;-3.80;99.90;;;;;;5068898;28;20046;-57
2021/12/26 04:58:22;;;;;;;9.90;4.88;;;-3.70;99.90;;;;;;5065950;28;20052;-55
2021/12/26 05:00:48;;;;;;;7.88;4.32;;;-3.60;99.90;;;;;;5067100;28;20054;-59
2021/12/26 05:03:14;;;;;;;9.10;4.72;;;-3.60;99.90;;;;;;5063829;28;20040;-54
2021/12/26 05:05:40;;;;;;;8.13;4.90;;;-3.60;99.90;;;;;;5060792;28;20044;-52
2021/12/26 05:08:06;;;;;;;9.32;5.05;;;-3.50;99.90;;;;;;5054531;28;20094;-57
2021/12/26 05:10:32;;;;;;;8.15;4.75;;;-3.50;99.90;;;;;;5064106;28;20089;-56
2021/12/26 05:13:00;;;;;;;11.90;5.70;;;-3.50;99.90;;;;;;5064685;28;20161;-55
2021/12/26 05:15:27;;;;;;;13.30;4.97;;;-3.50;99.90;;;;;;5061115;28;20044;-57
2021/12/26 05:17:54;;;;;;;21.80;5.97;;;-3.50;99.90;;;;;;5070218;28;20123;-62
2021/12/26 05:20:21;;;;;;;13.15;5.78;;;-3.50;99.90;;;;;;5069692;28;20074;-58
2021/12/26 05:22:49;;;;;;;11.77;5.22;;;-3.50;99.90;;;;;;5069702;28;20044;-61
2021/12/26 05:25:14;;;;;;;10.55;5.90;;;-3.50;99.90;;;;;;5060689;28;20042;-60
2021/12/26 05:27:41;;;;;;;11.20;5.75;;;-3.50;99.90;;;;;;5063897;28;20144;-57
2021/12/26 05:30:09;;;;;;;12.80;6.07;;;-3.50;99.90;;;;;;5065346;28;20036;-55
2021/12/26 05:32:35;;;;;;;13.48;6.30;;;-3.60;99.90;;;;;;5077228;28;20055;-58
2021/12/26 05:35:01;;;;;;;11.13;5.82;;;-3.50;99.90;;;;;;5075494;28;20144;-61
2021/12/26 05:37:26;;;;;;;8.15;4.90;;;-3.50;99.90;;;;;;5083366;28;20068;-56
2021/12/26 05:39:53;;;;;;;10.57;4.90;;;-3.40;99.90;;;;;;5072448;28;20029;-59
2021/12/26 05:42:19;;;;;;;9.82;5.32;;;-3.30;99.90;;;;;;5074560;28;20036;-59
2021/12/26 05:44:46;;;;;;;14.40;5.63;;;-3.40;99.90;;;;;;5072254;28;20121;-59
2021/12/26 05:47:12;;;;;;;10.40;5.60;;;-3.30;99.90;;;;;;5047072;28;20087;-57
2021/12/26 05:49:38;;;;;;;9.80;5.57;;;-3.40;99.90;;;;;;5048439;28;20033;-60
2021/12/26 05:52:04;;;;;;;11.68;5.80;;;-3.30;99.90;;;;;;5033567;28;20122;-62
2021/12/26 05:54:30;;;;;;;11.30;5.40;;;-3.30;99.90;;;;;;5039628;28;20072;-59
2021/12/26 05:56:56;;;;;;;12.68;6.00;;;-3.20;99.90;;;;;;5043266;28;20041;-59
2021/12/26 05:59:22;;;;;;;15.13;6.03;;;-3.20;99.90;;;;;;5035467;28;20041;-60
2021/12/26 06:01:48;;;;;;;10.05;5.47;;;-3.20;99.90;;;;;;5047556;28;20501;-56
2021/12/26 06:04:13;;;;;;;11.93;5.57;;;-3.10;99.90;;;;;;5045698;28;20033;-64
2021/12/26 06:06:39;;;;;;;12.23;6.15;;;-3.10;99.90;;;;;;5047550;28;20635;-59
2021/12/26 06:09:06;;;;;;;11.18;5.95;;;-3.00;99.90;;;;;;5047070;28;20033;-61
2021/12/26 06:11:32;;;;;;;10.45;5.03;;;-3.00;99.90;;;;;;5047001;28;20033;-58
2021/12/26 06:13:58;;;;;;;11.20;5.47;;;-2.80;99.90;;;;;;5046640;28;20037;-57
2021/12/26 06:16:23;;;;;;;10.95;5.28;;;-2.70;99.90;;;;;;5042675;28;20055;-60
2021/12/26 06:18:49;;;;;;;8.20;5.20;;;-2.70;99.90;;;;;;5044600;28;20070;-61
2021/12/26 06:21:15;;;;;;;8.88;5.20;;;-2.60;99.90;;;;;;5043977;28;20029;-61
2021/12/26 06:23:41;;;;;;;7.80;4.85;;;-2.60;99.90;;;;;;5044746;28;20095;-61
2021/12/26 06:26:06;;;;;;;7.88;4.60;;;-2.50;99.90;;;;;;5043052;28;20048;-57
2021/12/26 06:28:32;;;;;;;11.60;5.50;;;-2.50;99.90;;;;;;5048974;28;20044;-59
2021/12/26 06:30:57;;;;;;;8.90;5.18;;;-2.40;99.90;;;;;;5043590;28;20037;-63
2021/12/26 06:33:23;;;;;;;8.88;4.90;;;-2.40;99.90;;;;;;5045532;28;20049;-61
2021/12/26 06:35:52;;;;;;;7.78;4.40;;;-2.30;99.90;;;;;;5043971;28;20128;-63
2021/12/26 06:38:17;;;;;;;10.65;5.63;;;-2.30;99.90;;;;;;5042035;28;20044;-60
2021/12/26 06:40:43;;;;;;;9.75;5.78;;;-2.30;99.90;;;;;;5044380;28;20040;-63
2021/12/26 06:43:11;;;;;;;9.00;5.18;;;-2.30;99.90;;;;;;5046464;28;20118;-60
2021/12/26 06:45:36;;;;;;;10.70;4.90;;;-2.20;99.90;;;;;;5043742;28;20059;-61
2021/12/26 06:48:03;;;;;;;11.88;5.82;;;-2.10;99.90;;;;;;5043486;28;20512;-55
2021/12/26 06:50:29;;;;;;;8.45;4.90;;;-2.10;99.90;;;;;;5046946;28;20056;-60
2021/12/26 06:52:55;;;;;;;10.65;5.55;;;-2.10;99.90;;;;;;5046840;28;20432;-59
2021/12/26 06:55:20;;;;;;;9.73;5.20;;;-2.10;99.90;;;;;;5046350;28;20498;-56
2021/12/26 06:57:46;;;;;;;7.90;4.70;;;-2.10;99.90;;;;;;5046920;28;20120;-52
2021/12/26 07:00:15;;;;;;;10.00;5.53;;;-2.00;99.90;;;;;;5042766;28;20040;-57
2021/12/26 07:02:42;;;;;;;9.13;4.45;;;-2.00;99.90;;;;;;5039659;28;20033;-57
2021/12/26 07:05:09;;;;;;;12.45;5.32;;;-1.90;99.90;;;;;;5040362;28;20056;-57
2021/12/26 07:07:34;;;;;;;9.68;5.18;;;-1.90;99.90;;;;;;5046084;28;20053;-57
2021/12/26 07:10:00;;;;;;;9.80;5.30;;;-1.90;99.90;;;;;;5051426;28;20090;-56
2021/12/26 07:12:26;;;;;;;8.40;5.25;;;-1.90;99.90;;;;;;5046824;28;20807;-56
2021/12/26 07:14:52;;;;;;;8.60;4.95;;;-1.80;99.90;;;;;;5045680;28;20033;-53
2021/12/26 07:17:17;;;;;;;8.90;5.22;;;-1.80;99.90;;;;;;5046740;28;20136;-56
2021/12/26 07:19:43;;;;;;;7.57;4.47;;;-1.80;99.90;;;;;;5046108;28;20053;-54
2021/12/26 07:22:09;;;;;;;8.77;4.95;;;-1.80;99.90;;;;;;5051308;28;20029;-55
2021/12/26 07:24:34;;;;;;;9.07;5.05;;;-1.70;99.90;;;;;;5046537;28;20048;-52
2021/12/26 07:27:00;;;;;;;9.15;5.55;;;-1.80;99.90;;;;;;5046532;28;20120;-53
2021/12/26 07:29:26;;;;;;;9.85;4.82;;;-1.70;99.90;;;;;;5050946;28;20120;-58
2021/12/26 07:31:51;;;;;;;13.02;5.68;;;-1.70;99.90;;;;;;5050005;28;20124;-55
2021/12/26 07:34:17;;;;;;;8.95;5.20;;;-1.70;99.90;;;;;;5047682;28;20060;-59
2021/12/26 07:36:43;;;;;;;10.50;5.63;;;-1.80;99.90;;;;;;5048502;28;20119;-55
2021/12/26 07:39:08;;;;;;;9.52;5.03;;;-1.70;99.90;;;;;;5046445;28;20067;-62
2021/12/26 07:41:34;;;;;;;9.90;5.55;;;-1.70;99.90;;;;;;5051377;28;20483;-62
2021/12/26 07:44:00;;;;;;;8.00;4.95;;;-1.70;99.90;;;;;;5049340;28;20040;-59
2021/12/26 07:46:26;;;;;;;11.48;6.10;;;-1.70;99.90;;;;;;5048103;28;20040;-60
2021/12/26 07:48:52;;;;;;;10.00;5.40;;;-1.70;99.90;;;;;;5048817;28;20059;-57
2021/12/26 07:51:19;;;;;;;9.88;5.70;;;-1.60;99.90;;;;;;5062705;28;20032;-58
2021/12/26 07:53:47;;;;;;;9.18;5.45;;;-1.60;99.90;;;;;;5044550;28;20120;-61
2021/12/26 07:56:14;;;;;;;8.98;5.45;;;-1.60;99.90;;;;;;5045676;28;20048;-57
2021/12/26 07:58:40;;;;;;;8.70;4.85;;;-1.60;99.90;;;;;;5050464;28;20048;-55
2021/12/26 08:01:06;;;;;;;10.10;5.60;;;-1.50;99.90;;;;;;5046558;28;20120;-58
2021/12/26 08:03:35;;;;;;;9.68;5.15;;;-1.50;99.90;;;;;;5047077;28;20445;-58
2021/12/26 08:06:02;;;;;;;10.18;5.15;;;-1.50;99.90;;;;;;5046740;28;20037;-59
2021/12/26 08:08:28;;;;;;;8.02;4.50;;;-1.50;99.90;;;;;;5049691;28;20102;-59
2021/12/26 08:10:53;;;;;;;10.23;5.05;;;-1.50;99.90;;;;;;5049152;28;20128;-58
2021/12/26 08:13:19;;;;;;;10.80;5.80;;;-1.50;99.90;;;;;;5048202;28;20120;-61
2021/12/26 08:15:45;;;;;;;10.13;5.95;;;-1.60;99.90;;;;;;5046769;28;20037;-59
2021/12/26 08:18:10;;;;;;;11.13;4.88;;;-1.50;99.90;;;;;;5046644;28;20033;-56
2021/12/26 08:20:37;;;;;;;10.15;5.32;;;-1.50;99.90;;;;;;5043366;28;20092;-56
2021/12/26 08:23:03;;;;;;;10.98;5.78;;;-1.50;99.90;;;;;;5048145;28;20040;-55
2021/12/26 08:25:29;;;;;;;9.68;5.13;;;-1.40;99.90;;;;;;5044361;28;20076;-62
2021/12/26 08:27:55;;;;;;;11.63;5.68;;;-1.30;99.90;;;;;;5051570;28;20061;-60
2021/12/26 08:30:20;;;;;;;8.90;4.85;;;-1.30;99.90;;;;;;5049093;28;20754;-60
2021/12/26 08:32:51;;;;;;;9.65;5.15;;;-1.20;99.90;;;;;;5049902;28;20071;-56
2021/12/26 08:35:17;;;;;;;8.68;4.88;;;-1.10;99.90;;;;;;5043879;28;20416;-59
2021/12/26 08:37:45;;;;;;;10.63;5.90;;;-1.10;99.90;;;;;;5047267;28;20517;-60
2021/12/26 08:40:11;;;;;;;11.68;5.80;;;-1.10;99.90;;;;;;5047329;28;20108;-58
2021/12/26 08:42:37;;;;;;;9.93;6.07;;;-1.20;99.90;;;;;;5049472;28;20059;-60
2021/12/26 08:45:03;;;;;;;12.07;6.25;;;-1.20;99.90;;;;;;5047007;28;20518;-57
2021/12/26 08:47:28;;;;;;;10.38;5.68;;;-1.20;99.90;;;;;;5048868;28;20045;-58
2021/12/26 08:49:55;;;;;;;9.60;5.30;;;-1.10;99.90;;;;;;5047671;28;20033;-59
2021/12/26 08:52:21;;;;;;;11.02;6.45;;;-1.20;99.90;;;;;;5049400;28;20041;-56
2021/12/26 08:54:47;;;;;;;9.50;5.03;;;-1.10;99.90;;;;;;5047489;28;20040;-61
2021/12/26 08:57:14;;;;;;;11.65;6.45;;;-1.00;99.90;;;;;;5048209;28;20036;-59
2021/12/26 08:59:41;;;;;;;9.75;5.53;;;-1.00;99.90;;;;;;5047240;28;20404;-61
2021/12/26 09:02:07;;;;;;;10.00;5.60;;;-0.90;99.90;;;;;;5048533;28;20037;-61
2021/12/26 09:04:34;;;;;;;11.23;6.10;;;-0.80;99.90;;;;;;5047133;28;20119;-57
2021/12/26 09:07:00;;;;;;;12.45;6.93;;;-0.90;99.90;;;;;;5046636;28;20063;-59
2021/12/26 09:09:27;;;;;;;12.60;6.95;;;-0.90;99.90;;;;;;5047691;28;20100;-62
2021/12/26 09:11:53;;;;;;;14.57;7.40;;;-0.90;99.90;;;;;;5044928;28;20070;-55
2021/12/26 09:14:19;;;;;;;10.65;6.13;;;-0.90;99.90;;;;;;5044896;28;20567;-62
2021/12/26 09:16:44;;;;;;;13.07;6.70;;;-0.90;99.90;;;;;;5047847;28;20045;-62
2021/12/26 09:19:10;;;;;;;11.02;6.35;;;-0.80;99.90;;;;;;5047386;28;20095;-60
2021/12/26 09:21:36;;;;;;;10.48;6.45;;;-0.70;99.90;;;;;;5045555;28;20073;-58
2021/12/26 09:24:04;;;;;;;11.45;6.45;;;-0.70;99.90;;;;;;5046363;28;20512;-62
2021/12/26 09:26:30;;;;;;;10.75;6.15;;;-0.60;99.90;;;;;;5041263;28;20616;-59
2021/12/26 09:28:57;;;;;;;9.35;5.35;;;-0.60;99.90;;;;;;5059544;28;20036;-62
2021/12/26 09:31:23;;;;;;;8.65;5.00;;;-0.60;99.90;;;;;;5050697;28;20033;-60
2021/12/26 09:33:49;;;;;;;9.60;5.45;;;-0.50;99.90;;;;;;5048853;28;20052;-62
2021/12/26 09:36:15;;;;;;;9.43;5.80;;;-0.50;99.90;;;;;;5050611;28;20040;-61
2021/12/26 09:38:41;;;;;;;8.80;5.38;;;-0.60;99.90;;;;;;5050026;28;20081;-62
2021/12/26 09:41:07;;;;;;;6.78;4.10;;;-0.60;99.90;;;;;;5050373;28;20036;-56
2021/12/26 09:43:32;;;;;;;10.40;6.00;;;-0.50;99.90;;;;;;5048183;28;20444;-60
2021/12/26 09:45:58;;;;;;;10.35;5.35;;;-0.40;99.90;;;;;;5047708;28;20060;-64
2021/12/26 09:48:24;;;;;;;8.43;4.20;;;-0.30;99.90;;;;;;5049442;28;20060;-60
2021/12/26 09:50:49;;;;;;;6.57;4.07;;;-0.20;99.90;;;;;;5048329;28;20110;-61
2021/12/26 09:53:15;;;;;;;8.20;4.38;;;-0.10;99.90;;;;;;5048297;28;20120;-58
2021/12/26 09:55:41;;;;;;;7.13;4.55;;;-0.10;99.90;;;;;;5050468;28;20033;-56
2021/12/26 09:58:07;;;;;;;7.70;4.60;;;-0.10;99.90;;;;;;5049223;28;20076;-58
2021/12/26 10:00:36;;;;;;;6.88;4.13;;;0.10;99.90;;;;;;5050393;28;20045;-61
2021/12/26 10:03:12;;;;;;;8.52;5.18;;;0.20;99.90;;;;;;5047808;28;20044;-56
2021/12/26 10:05:58;;;;;;;7.70;4.60;;;0.30;99.90;;;;;;5048929;28;20040;-55
2021/12/26 10:08:25;;;;;;;8.13;5.07;;;0.40;99.90;;;;;;5043975;28;20046;-59
2021/12/26 10:11:14;;;;;;;8.57;5.15;;;0.40;99.90;;;;;;5047609;28;20044;-60
2021/12/26 10:13:51;;;;;;;8.88;5.07;;;0.50;99.90;;;;;;5047107;28;20076;-57
2021/12/26 10:16:18;;;;;;;;;;;0.50;99.90;;;;;;5046508;28;20052;-62
2021/12/26 10:18:44;;;;;;;6.30;3.30;;;0.60;99.90;;;;;;5047669;28;19920;-63
2021/12/26 10:21:34;;;;;;;5.47;3.42;;;0.70;99.90;;;;;;5045799;28;20067;-58
2021/12/26 10:24:04;;;;;;;5.97;3.30;;;0.80;99.90;;;;;;5043702;28;20029;-60
2021/12/26 10:26:33;;;;;;;3.92;2.55;;;1.00;99.90;;;;;;5042353;28;20037;-57
2021/12/26 10:29:14;;;;;;;5.63;3.38;;;1.00;99.90;;;;;;5051453;28;20509;-59
2021/12/26 10:31:59;;;;;;;5.05;3.30;;;1.20;99.90;;;;;;5044350;28;20072;-57
2021/12/26 10:34:29;;;;;;;4.30;2.92;;;1.10;99.90;;;;;;5041158;28;20412;-58
2021/12/26 10:36:58;;;;;;;5.72;3.38;;;1.10;99.90;;;;;;5048542;28;20098;-60
2021/12/26 10:39:27;;;;;;;4.93;2.58;;;1.10;99.90;;;;;;5047899;28;20068;-59
2021/12/26 10:42:02;;;;;;;5.03;3.05;;;1.20;99.90;;;;;;5047055;28;20577;-61
2021/12/26 10:44:41;;;;;;;5.93;3.38;;;1.20;99.90;;;;;;5044130;28;20051;-54
2021/12/26 10:47:14;;;;;;;6.00;3.70;;;1.30;99.90;;;;;;5029363;28;20110;-60
2021/12/26 10:49:44;;;;;;;4.13;2.70;;;1.40;99.90;;;;;;5036226;28;20504;-55
2021/12/26 10:52:13;;;;;;;3.80;2.35;;;1.40;99.90;;;;;;5036705;28;20029;-52
2021/12/26 10:54:41;;;;;;;5.72;2.88;;;1.40;99.90;;;;;;5044341;28;20036;-59
2021/12/26 10:57:13;;;;;;;4.63;2.53;;;1.50;99.90;;;;;;5044100;28;20045;-64
2021/12/26 10:59:43;;;;;;;2.67;1.63;;;1.60;99.90;;;;;;5044594;28;20080;-63
2021/12/26 11:02:19;;;;;;;1.77;1.33;;;1.50;99.90;;;;;;5043188;28;20037;-65
2021/12/26 11:05:16;;;;;;;3.17;1.65;;;1.40;99.90;;;;;;5045399;28;20072;-66
2021/12/26 11:07:46;;;;;;;3.00;1.60;;;1.50;99.90;;;;;;5046004;28;20053;-63
2021/12/26 11:10:43;;;;;;;2.35;1.55;;;1.40;99.90;;;;;;5045442;28;20119;-62
2021/12/26 11:13:25;;;;;;;3.05;2.03;;;1.30;99.90;;;;;;5041139;28;20090;-63
2021/12/26 11:15:56;;;;;;;2.20;1.58;;;1.40;99.90;;;;;;5044634;28;20512;-62
2021/12/26 11:18:22;;;;;;;2.28;1.60;;;1.50;99.90;;;;;;5045785;28;20516;-60
2021/12/26 11:20:50;;;;;;;1.70;1.10;;;1.60;99.90;;;;;;5044855;28;20080;-60
2021/12/26 11:23:24;;;;;;;2.13;1.20;;;1.70;99.90;;;;;;5040233;28;20595;-63
2021/12/26 11:25:53;;;;;;;2.42;1.73;;;1.80;99.90;;;;;;5042686;28;20413;-64
2021/12/26 11:28:27;;;;;;;3.13;1.95;;;1.80;99.90;;;;;;5042896;28;20044;-60
2021/12/26 11:30:57;;;;;;;4.07;2.47;;;1.70;99.90;;;;;;5046663;28;20171;-62
2021/12/26 11:33:23;;;;;;;3.58;2.40;;;1.80;99.90;;;;;;5044646;28;20037;-62
2021/12/26 11:35:51;;;;;;;4.47;2.58;;;1.80;99.90;;;;;;5043857;28;20044;-61
2021/12/26 11:38:20;;;;;;;4.20;2.35;;;1.90;99.90;;;;;;5047585;28;20040;-63
2021/12/26 11:40:48;;;;;;;4.10;2.53;;;1.90;99.90;;;;;;5044996;28;20041;-62
2021/12/26 11:43:38;;;;;;;3.55;2.50;;;2.00;99.90;;;;;;5046529;28;20041;-64
2021/12/26 11:46:24;;;;;;;3.80;2.60;;;2.00;99.90;;;;;;5046465;28;20793;-59
2021/12/26 11:49:25;;;;;;;5.10;3.00;;;2.00;99.90;;;;;;5045811;28;20090;-62
2021/12/26 11:52:03;;;;;;;8.85;3.17;;;2.10;99.90;;;;;;5047804;28;20047;-59
2021/12/26 11:54:56;;;;;;;6.00;3.40;;;2.20;99.90;;;;;;5045180;28;20033;-63
2021/12/26 11:57:30;;;;;;;4.95;3.28;;;2.20;99.90;;;;;;5040106;28;20134;-62
2021/12/26 12:00:24;;;;;;;7.07;3.55;;;2.20;99.90;;;;;;5049365;28;20033;-62
2021/12/26 12:02:56;;;;;;;7.40;3.88;;;2.20;99.90;;;;;;5047390;28;20045;-61
2021/12/26 12:05:28;;;;;;;5.20;3.20;;;2.10;99.90;;;;;;5044174;28;20345;-64
2021/12/26 12:08:06;;;;;;;6.72;2.85;;;2.20;99.90;;;;;;5044516;28;20476;-63
2021/12/26 12:10:53;;;;;;;5.95;3.45;;;2.30;99.90;;;;;;5043523;28;20045;-63
2021/12/26 12:13:21;;;;;;;;;;;2.40;99.90;;;;;;5047234;28;20037;-62
2021/12/26 12:15:47;;;;;;;5.43;2.88;;;2.40;99.90;;;;;;5045484;28;19940;-62
2021/12/26 12:18:16;;;;;;;6.07;3.30;;;2.40;99.90;;;;;;5047925;28;20685;-62
2021/12/26 12:20:42;;;;;;;5.60;2.97;;;2.40;99.90;;;;;;5048977;28;20538;-63
2021/12/26 12:23:08;;;;;;;4.63;3.10;;;2.40;99.90;;;;;;5047939;28;20029;-60
2021/12/26 12:25:34;;;;;;;6.13;3.28;;;2.30;99.90;;;;;;5046788;28;20044;-60
2021/12/26 12:28:10;;;;;;;6.00;3.20;;;2.30;99.90;;;;;;5038249;28;20072;-62
2021/12/26 12:30:41;;;;;;;5.35;3.20;;;2.40;99.90;;;;;;5048351;28;20037;-61
2021/12/26 12:33:31;;;;;;;6.10;3.75;;;2.30;99.90;;;;;;5095579;28;20044;-65
2021/12/26 12:36:04;;;;;;;5.05;2.72;;;2.30;99.90;;;;;;5067722;28;20040;-62
2021/12/26 12:38:44;;;;;;;4.38;2.53;;;2.30;99.90;;;;;;5067119;28;20376;-64
2021/12/26 12:41:38;;;;;;;7.57;3.08;;;2.30;99.90;;;;;;5068339;28;20034;-65
2021/12/26 12:44:21;;;;;;;5.20;2.97;;;2.20;99.90;;;;;;5069251;28;20045;-63
2021/12/26 12:47:14;;;;;;;7.35;3.35;;;2.30;99.90;;;;;;5082417;28;20453;-58
2021/12/26 12:49:51;;;;;;;5.00;2.45;;;2.30;99.90;;;;;;5074360;28;20055;-61
2021/12/26 12:52:38;;;;;;;6.82;3.15;;;2.40;99.90;;;;;;5064825;28;20047;-62
2021/12/26 12:55:07;;;;;;;6.22;3.38;;;2.40;99.90;;;;;;5068174;28;20040;-61
2021/12/26 12:57:39;;;;;;;5.75;3.00;;;2.40;99.90;;;;;;5074254;28;20037;-63
2021/12/26 13:00:25;;;;;;;5.13;2.85;;;2.30;99.90;;;;;;5076187;28;20033;-63
2021/12/26 13:02:54;;;;;;;5.10;3.08;;;2.30;99.90;;;;;;5073849;28;20040;-63